createdAt,value
2023-04-29T00:01:38.269Z,11.00
2023-04-29T00:04:06.611Z,11.00
2023-04-29T00:06:34.691Z,11.00
2023-04-29T00:09:02.690Z,11.00
2023-04-29T00:11:30.711Z,11.00
2023-04-29T00:13:58.702Z,10.90
2023-04-29T00:16:30.210Z,10.80
2023-04-29T00:19:01.362Z,10.70
2023-04-29T00:21:29.781Z,10.60
2023-04-29T00:23:57.830Z,10.60
2023-04-29T00:26:25.896Z,10.70
2023-04-29T00:28:54.548Z,10.70
2023-04-29T00:31:23.138Z,10.70
2023-04-29T00:33:51.344Z,10.70
2023-04-29T00:36:19.409Z,10.60
2023-04-29T00:38:47.496Z,10.60
2023-04-29T00:41:15.700Z,10.50
2023-04-29T00:43:44.040Z,10.60
2023-04-29T00:46:12.859Z,10.60
2023-04-29T00:48:40.863Z,10.60
2023-04-29T00:51:09.142Z,10.60
2023-04-29T00:53:37.499Z,10.70
2023-04-29T00:56:05.986Z,10.70
2023-04-29T00:58:36.630Z,10.70
2023-04-29T01:01:05.140Z,10.70
2023-04-29T01:03:33.804Z,10.70
2023-04-29T01:06:10.482Z,10.60
2023-04-29T01:08:57.252Z,10.60
2023-04-29T01:11:28.594Z,10.40
2023-04-29T01:14:02.451Z,10.20
2023-04-29T01:16:52.543Z,10.20
2023-04-29T01:19:23.666Z,10.20
2023-04-29T01:21:51.839Z,10.10
2023-04-29T01:28:27.847Z,10.00
2023-04-29T01:31:15.470Z,10.00
2023-04-29T01:33:55.486Z,10.00
2023-04-29T01:36:24.976Z,9.80
2023-04-29T01:39:13.531Z,9.70
2023-04-29T01:41:42.414Z,9.70
2023-04-29T01:44:22.048Z,9.70
2023-04-29T01:46:55.206Z,9.70
2023-04-29T01:49:29.303Z,9.70
2023-04-29T01:51:57.693Z,9.70
2023-04-29T01:54:26.084Z,9.60
2023-04-29T01:56:55.332Z,9.50
2023-04-29T01:59:32.222Z,9.50
2023-04-29T02:02:32.866Z,9.50
2023-04-29T02:05:11.343Z,9.50
2023-04-29T02:07:46.008Z,9.50
2023-04-29T02:10:14.305Z,9.50
2023-04-29T02:12:44.722Z,9.60
2023-04-29T02:15:13.334Z,9.70
2023-04-29T02:17:41.589Z,9.80
2023-04-29T02:20:10.455Z,9.90
2023-04-29T02:22:38.691Z,9.80
2023-04-29T02:25:10.608Z,9.80
2023-04-29T02:27:38.685Z,9.80
2023-04-29T02:30:07.784Z,9.80
2023-04-29T02:32:37.043Z,9.70
2023-04-29T02:35:05.150Z,9.60
2023-04-29T02:37:33.357Z,9.60
2023-04-29T02:40:01.454Z,9.50
2023-04-29T02:42:30.002Z,9.40
2023-04-29T02:44:58.279Z,9.40
2023-04-29T02:47:26.445Z,9.40
2023-04-29T02:49:54.719Z,9.30
2023-04-29T02:52:22.820Z,9.20
2023-04-29T02:54:51.044Z,9.10
2023-04-29T02:57:19.782Z,9.10
2023-04-29T02:59:47.796Z,9.10
2023-04-29T03:02:16.323Z,9.10
2023-04-29T03:04:48.923Z,9.10
2023-04-29T03:07:18.619Z,9.10
2023-04-29T03:09:46.787Z,9.10
2023-04-29T03:12:15.344Z,9.20
2023-04-29T03:14:43.924Z,9.20
2023-04-29T03:17:12.065Z,9.30
2023-04-29T03:19:40.210Z,9.30
2023-04-29T03:22:12.996Z,9.30
2023-04-29T03:24:44.079Z,9.30
2023-04-29T03:27:12.597Z,9.40
2023-04-29T03:29:40.587Z,9.40
2023-04-29T03:32:08.912Z,9.50
2023-04-29T03:34:37.305Z,9.50
2023-04-29T03:37:25.972Z,9.60
2023-04-29T03:40:01.979Z,9.70
2023-04-29T03:42:30.152Z,9.80
2023-04-29T03:44:58.175Z,9.90
2023-04-29T03:47:26.190Z,9.90
2023-04-29T03:49:54.980Z,9.90
2023-04-29T03:52:23.224Z,9.90
2023-04-29T03:54:54.611Z,9.90
2023-04-29T03:57:26.380Z,9.90
2023-04-29T03:59:55.904Z,10.00
2023-04-29T04:02:25.378Z,10.00
2023-04-29T04:04:53.772Z,10.00
2023-04-29T04:07:22.161Z,10.00
2023-04-29T04:10:10.741Z,10.00
2023-04-29T04:12:39.001Z,10.00
2023-04-29T04:15:07.238Z,10.00
2023-04-29T04:17:35.348Z,10.00
2023-04-29T04:20:03.445Z,10.00
2023-04-29T04:22:31.602Z,10.10
2023-04-29T04:25:17.236Z,10.10
2023-04-29T04:27:45.357Z,10.10
2023-04-29T04:30:22.605Z,10.10
2023-04-29T04:32:51.357Z,10.10
2023-04-29T04:35:19.417Z,10.20
2023-04-29T04:37:47.837Z,10.20
2023-04-29T04:40:16.381Z,10.20
2023-04-29T04:43:04.791Z,10.20
2023-04-29T04:45:33.027Z,10.20
2023-04-29T04:48:04.320Z,10.30
2023-04-29T04:50:35.280Z,10.20
2023-04-29T04:53:03.626Z,10.30
2023-04-29T04:55:44.328Z,10.30
2023-04-29T04:58:12.444Z,10.40
2023-04-29T05:00:44.895Z,10.40
2023-04-29T05:03:13.846Z,10.40
2023-04-29T05:05:44.138Z,10.30
2023-04-29T05:08:12.691Z,10.40
2023-04-29T05:10:45.420Z,10.50
2023-04-29T05:13:14.063Z,10.60
2023-04-29T05:15:44.593Z,10.60
2023-04-29T05:18:13.221Z,10.50
2023-04-29T05:20:44.351Z,10.60
2023-04-29T05:23:12.597Z,10.70
2023-04-29T05:25:41.977Z,10.70
2023-04-29T05:28:10.318Z,10.70
2023-04-29T05:30:41.586Z,10.70
2023-04-29T05:33:09.898Z,10.80
2023-04-29T05:35:38.538Z,10.90
2023-04-29T05:38:06.672Z,10.90
2023-04-29T05:40:41.080Z,11.00
2023-04-29T05:43:27.719Z,11.10
2023-04-29T05:45:57.596Z,11.20
2023-04-29T05:48:26.381Z,11.20
2023-04-29T05:50:57.995Z,11.30
2023-04-29T05:53:29.272Z,11.30
2023-04-29T05:55:57.425Z,11.40
2023-04-29T05:58:27.380Z,11.50
2023-04-29T06:00:56.453Z,11.60
2023-04-29T06:03:27.153Z,11.60
2023-04-29T06:06:15.692Z,11.70
2023-04-29T06:09:27.091Z,11.80
2023-04-29T06:11:59.167Z,11.90
2023-04-29T06:14:27.277Z,11.90
2023-04-29T06:16:55.536Z,12.00
2023-04-29T06:19:23.646Z,12.00
2023-04-29T06:21:51.786Z,12.10
2023-04-29T06:24:20.386Z,12.20
2023-04-29T06:26:48.706Z,12.30
2023-04-29T06:29:17.532Z,12.30
2023-04-29T06:31:45.748Z,12.40
2023-04-29T06:34:14.487Z,12.50
2023-04-29T06:37:07.701Z,12.60
2023-04-29T06:40:04.093Z,12.70
2023-04-29T06:42:53.832Z,12.80
2023-04-29T06:45:48.132Z,12.90
2023-04-29T06:48:23.114Z,13.00
2023-04-29T06:50:52.174Z,13.10
2023-04-29T06:53:20.789Z,13.10
2023-04-29T06:55:49.265Z,13.10
2023-04-29T06:58:17.670Z,13.20
2023-04-29T07:00:46.246Z,13.20
2023-04-29T07:03:17.635Z,13.30
2023-04-29T07:05:47.646Z,13.40
2023-04-29T07:08:15.739Z,13.30
2023-04-29T07:10:43.831Z,13.40
2023-04-29T07:13:11.906Z,13.50
2023-04-29T07:15:40.075Z,13.60
2023-04-29T07:18:08.289Z,13.60
2023-04-29T07:20:38.197Z,13.50
2023-04-29T07:23:06.905Z,13.40
2023-04-29T07:25:35.482Z,13.40
2023-04-29T07:28:04.240Z,13.40
2023-04-29T07:30:32.273Z,13.50
2023-04-29T07:33:00.449Z,13.50
2023-04-29T07:35:29.021Z,13.50
2023-04-29T07:37:57.431Z,13.60
2023-04-29T07:40:26.845Z,13.70
2023-04-29T07:42:59.140Z,13.70
2023-04-29T07:45:27.520Z,13.70
2023-04-29T07:47:56.200Z,13.80
2023-04-29T07:50:24.544Z,13.80
2023-04-29T07:52:52.777Z,13.90
2023-04-29T07:55:24.683Z,14.10
2023-04-29T07:57:54.010Z,14.30
2023-04-29T08:00:23.170Z,14.50
2023-04-29T08:02:54.819Z,14.70
2023-04-29T08:05:24.666Z,14.80
2023-04-29T08:07:53.826Z,15.00
2023-04-29T08:10:26.002Z,15.10
2023-04-29T08:12:55.913Z,15.10
2023-04-29T08:15:24.037Z,15.10
2023-04-29T08:17:52.378Z,15.00
2023-04-29T08:20:20.630Z,14.80
2023-04-29T08:22:52.331Z,14.80
2023-04-29T08:25:20.404Z,14.70
2023-04-29T08:27:49.181Z,14.60
2023-04-29T08:30:20.406Z,14.60
2023-04-29T08:32:48.532Z,14.50
2023-04-29T08:35:16.603Z,14.50
2023-04-29T08:37:44.747Z,14.50
2023-04-29T08:40:13.023Z,14.50
2023-04-29T08:42:41.133Z,14.50
2023-04-29T08:45:09.707Z,14.50
2023-04-29T08:47:38.350Z,14.40
2023-04-29T08:50:07.003Z,14.40
2023-04-29T08:52:34.996Z,14.40
2023-04-29T08:55:04.321Z,14.40
2023-04-29T08:57:40.842Z,14.40
2023-04-29T09:00:10.103Z,14.50
2023-04-29T09:02:54.923Z,14.50
2023-04-29T09:05:23.244Z,14.50
2023-04-29T09:07:52.790Z,14.50
2023-04-29T09:10:21.152Z,14.60
2023-04-29T09:12:49.487Z,14.70
2023-04-29T09:15:17.580Z,14.70
2023-04-29T09:17:46.738Z,14.90
2023-04-29T09:20:35.106Z,14.80
2023-04-29T09:23:05.326Z,14.90
2023-04-29T09:25:33.355Z,15.20
2023-04-29T09:28:15.588Z,15.30
2023-04-29T09:30:47.169Z,15.60
2023-04-29T09:33:16.556Z,15.80
2023-04-29T09:35:44.720Z,16.20
2023-04-29T09:38:13.658Z,16.50
2023-04-29T09:40:57.672Z,16.70
2023-04-29T09:43:27.530Z,16.80
2023-04-29T09:45:56.086Z,16.80
2023-04-29T09:48:34.615Z,16.90
2023-04-29T09:51:07.162Z,16.90
2023-04-29T09:53:39.558Z,17.10
2023-04-29T09:56:08.647Z,17.30
2023-04-29T09:58:40.618Z,17.40
2023-04-29T10:01:08.812Z,17.20
2023-04-29T10:03:38.389Z,17.20
2023-04-29T10:06:08.161Z,17.30
2023-04-29T10:08:36.606Z,17.30
2023-04-29T10:11:05.486Z,17.50
2023-04-29T10:13:35.539Z,17.50
2023-04-29T10:16:19.646Z,17.70
2023-04-29T10:18:50.419Z,17.50
2023-04-29T10:21:19.894Z,17.40
2023-04-29T10:23:48.038Z,17.30
2023-04-29T10:26:16.589Z,17.20
2023-04-29T10:28:45.152Z,17.10
2023-04-29T10:31:14.896Z,17.30
2023-04-29T10:33:45.636Z,17.30
2023-04-29T10:36:14.380Z,17.00
2023-04-29T10:38:43.890Z,17.00
2023-04-29T10:41:16.600Z,17.00
2023-04-29T10:43:50.696Z,16.90
2023-04-29T10:46:18.781Z,16.90
2023-04-29T10:48:47.530Z,16.90
2023-04-29T10:51:28.843Z,16.90
2023-04-29T10:54:15.087Z,16.80
2023-04-29T10:56:50.631Z,16.80
2023-04-29T10:59:21.887Z,16.70
2023-04-29T11:01:53.720Z,16.60
2023-04-29T11:04:25.409Z,16.50
2023-04-29T11:06:54.522Z,16.50
2023-04-29T11:09:25.820Z,16.40
2023-04-29T11:12:04.935Z,16.50
2023-04-29T11:14:39.534Z,16.50
2023-04-29T11:17:18.242Z,16.60
2023-04-29T11:19:57.464Z,16.70
2023-04-29T11:22:33.720Z,16.80
2023-04-29T11:25:04.033Z,16.90
2023-04-29T11:27:33.206Z,16.80
2023-04-29T11:30:03.206Z,16.70
2023-04-29T11:32:32.541Z,16.70
2023-04-29T11:35:16.322Z,16.70
2023-04-29T11:37:45.658Z,16.60
2023-04-29T11:40:14.622Z,16.50
2023-04-29T11:42:46.973Z,16.40
2023-04-29T11:45:16.437Z,16.30
2023-04-29T11:47:46.962Z,16.30
2023-04-29T11:50:18.039Z,16.20
2023-04-29T11:52:47.694Z,16.20
2023-04-29T11:55:16.073Z,16.10
2023-04-29T11:57:44.181Z,16.00
2023-04-29T12:00:14.939Z,15.90
2023-04-29T12:02:48.045Z,15.90
2023-04-29T12:05:18.108Z,16.00
2023-04-29T12:07:46.665Z,16.00
2023-04-29T12:10:15.010Z,15.90
2023-04-29T12:12:45.167Z,15.90
2023-04-29T12:15:14.046Z,15.90
2023-04-29T12:17:42.672Z,15.90
2023-04-29T12:20:12.084Z,15.80
2023-04-29T12:22:40.697Z,15.70
2023-04-29T12:25:09.250Z,15.70
2023-04-29T12:27:38.374Z,15.80
2023-04-29T12:30:10.849Z,15.70
2023-04-29T12:32:39.824Z,15.70
2023-04-29T12:35:17.568Z,15.70
2023-04-29T12:37:52.503Z,15.70
2023-04-29T12:40:21.697Z,15.70
2023-04-29T12:42:50.201Z,15.70
2023-04-29T12:45:34.928Z,15.60
2023-04-29T12:48:12.206Z,15.50
2023-04-29T12:50:50.650Z,15.50
2023-04-29T12:53:21.560Z,15.50
2023-04-29T12:55:49.864Z,15.60
2023-04-29T12:58:18.078Z,15.50
2023-04-29T13:00:46.282Z,15.50
2023-04-29T13:03:14.596Z,15.60
2023-04-29T13:05:42.763Z,15.80
2023-04-29T13:08:10.811Z,15.90
2023-04-29T13:10:38.851Z,16.00
2023-04-29T13:13:10.035Z,16.10
2023-04-29T13:15:44.590Z,16.10
2023-04-29T13:18:12.773Z,16.10
2023-04-29T13:20:43.656Z,16.10
2023-04-29T13:23:13.290Z,16.10
2023-04-29T13:25:41.319Z,16.20
2023-04-29T13:28:09.452Z,16.20
2023-04-29T13:30:37.939Z,16.30
2023-04-29T13:33:12.207Z,16.30
2023-04-29T13:35:42.766Z,16.50
2023-04-29T13:38:10.819Z,16.40
2023-04-29T13:40:45.394Z,16.50
2023-04-29T13:43:18.633Z,16.50
2023-04-29T13:45:57.697Z,16.50
2023-04-29T13:48:48.516Z,16.50
2023-04-29T13:52:01.470Z,16.50
2023-04-29T13:59:36.261Z,16.30
2023-04-29T14:04:30.520Z,16.30
2023-04-29T14:06:59.092Z,16.10
2023-04-29T14:09:27.649Z,15.80
2023-04-29T14:11:56.286Z,15.70
2023-04-29T14:14:26.924Z,15.70
2023-04-29T14:16:54.983Z,15.70
2023-04-29T14:19:24.231Z,15.50
2023-04-29T14:21:53.072Z,15.50
2023-04-29T14:24:21.072Z,15.40
2023-04-29T14:26:49.126Z,15.40
2023-04-29T14:29:17.181Z,15.30
2023-04-29T14:31:45.375Z,15.20
2023-04-29T14:34:14.309Z,15.20
2023-04-29T14:36:42.887Z,15.30
2023-04-29T14:39:11.792Z,15.30
2023-04-29T14:41:39.786Z,15.30
2023-04-29T14:44:07.809Z,15.20
2023-04-29T14:46:35.939Z,15.20
2023-04-29T14:49:04.500Z,15.20
2023-04-29T14:51:32.553Z,15.10
2023-04-29T14:54:00.645Z,15.00
2023-04-29T14:56:28.754Z,15.00
2023-04-29T14:58:56.981Z,15.00
2023-04-29T15:01:24.966Z,15.10
2023-04-29T15:03:53.064Z,15.20
2023-04-29T15:06:21.494Z,15.20
2023-04-29T15:08:49.706Z,15.30
2023-04-29T15:11:17.937Z,15.30
2023-04-29T15:13:45.948Z,15.30
2023-04-29T15:16:14.031Z,15.30
2023-04-29T15:18:45.504Z,15.40
2023-04-29T15:21:14.066Z,15.40
2023-04-29T15:23:42.152Z,15.40
2023-04-29T15:26:10.258Z,15.30
2023-04-29T15:28:39.397Z,15.30
2023-04-29T15:31:07.473Z,15.20
2023-04-29T15:33:35.702Z,15.00
2023-04-29T15:36:04.388Z,14.90
2023-04-29T15:38:32.449Z,14.70
2023-04-29T15:41:02.763Z,14.60
2023-04-29T15:43:31.500Z,14.50
2023-04-29T15:46:00.214Z,14.40
2023-04-29T15:48:28.599Z,14.30
2023-04-29T15:50:56.637Z,14.40
2023-04-29T15:53:24.718Z,14.40
2023-04-29T15:55:53.092Z,14.40
2023-04-29T15:58:21.087Z,14.40
2023-04-29T16:00:49.211Z,14.40
2023-04-29T16:03:17.313Z,14.30
2023-04-29T16:05:45.547Z,14.30
2023-04-29T16:08:13.629Z,14.30
2023-04-29T16:10:42.025Z,14.20
2023-04-29T16:13:10.085Z,14.10
2023-04-29T16:15:38.111Z,14.10
2023-04-29T16:18:06.183Z,14.20
2023-04-29T16:20:37.256Z,14.10
2023-04-29T16:23:05.266Z,14.20
2023-04-29T16:25:34.572Z,14.20
2023-04-29T16:28:05.369Z,14.20
2023-04-29T16:30:33.644Z,14.10
2023-04-29T16:33:01.647Z,14.20
2023-04-29T16:35:31.941Z,14.20
2023-04-29T16:37:59.944Z,14.20
2023-04-29T16:40:29.009Z,14.20
2023-04-29T16:42:59.148Z,14.30
2023-04-29T16:45:27.633Z,14.30
2023-04-29T16:47:55.996Z,14.20
2023-04-29T16:50:24.073Z,14.30
2023-04-29T16:52:52.053Z,14.30
2023-04-29T16:55:20.229Z,14.30
2023-04-29T16:57:48.220Z,14.30
2023-04-29T17:00:16.348Z,14.30
2023-04-29T17:02:47.066Z,14.30
2023-04-29T17:05:17.581Z,14.20
2023-04-29T17:07:45.571Z,14.20
2023-04-29T17:10:13.612Z,14.10
2023-04-29T17:12:41.700Z,14.10
2023-04-29T17:15:09.930Z,14.00
2023-04-29T17:17:38.021Z,13.90
2023-04-29T17:20:06.904Z,13.90
2023-04-29T17:22:34.987Z,13.90
2023-04-29T17:25:03.577Z,13.80
2023-04-29T17:27:32.044Z,13.80
2023-04-29T17:30:00.226Z,13.70
2023-04-29T17:32:31.277Z,13.70
2023-04-29T17:35:00.392Z,13.70
2023-04-29T17:37:28.761Z,13.60
2023-04-29T17:39:57.209Z,13.60
2023-04-29T17:42:25.510Z,13.60
2023-04-29T17:44:53.524Z,13.50
2023-04-29T17:47:22.487Z,13.50
2023-04-29T17:49:52.169Z,13.50
2023-04-29T17:52:22.528Z,13.40
2023-04-29T17:54:50.642Z,13.40
2023-04-29T17:57:18.879Z,13.30
2023-04-29T17:59:48.172Z,13.20
2023-04-29T18:02:16.820Z,13.20
2023-04-29T18:04:47.924Z,13.20
2023-04-29T18:07:16.246Z,13.30
2023-04-29T18:09:44.253Z,13.20
2023-04-29T18:12:12.368Z,13.20
2023-04-29T18:14:40.513Z,13.20
2023-04-29T18:17:08.622Z,13.20
2023-04-29T18:19:36.670Z,13.10
2023-04-29T18:22:04.699Z,13.10
2023-04-29T18:24:32.680Z,13.10
2023-04-29T18:27:00.764Z,13.10
2023-04-29T18:29:28.779Z,13.10
2023-04-29T18:31:56.906Z,13.00
2023-04-29T18:34:25.121Z,13.00
2023-04-29T18:36:54.241Z,12.90
2023-04-29T18:39:22.288Z,13.00
2023-04-29T18:41:50.310Z,12.90
2023-04-29T18:44:18.366Z,12.90
2023-04-29T18:46:46.441Z,12.80
2023-04-29T18:49:18.229Z,12.80
2023-04-29T18:51:49.542Z,12.80
2023-04-29T18:54:18.657Z,12.80
2023-04-29T18:56:47.794Z,12.80
2023-04-29T18:59:20.271Z,12.70
2023-04-29T19:01:48.953Z,12.70
2023-04-29T19:04:17.474Z,12.70
2023-04-29T19:06:46.135Z,12.60
2023-04-29T19:09:14.900Z,12.70
2023-04-29T19:11:43.387Z,12.60
2023-04-29T19:14:11.518Z,12.50
2023-04-29T19:16:39.599Z,12.50
2023-04-29T19:19:08.140Z,12.50
2023-04-29T19:21:37.051Z,12.50
2023-04-29T19:24:05.201Z,12.40
2023-04-29T19:26:35.488Z,12.40
2023-04-29T19:29:05.112Z,12.40
2023-04-29T19:31:33.262Z,12.40
2023-04-29T19:34:01.812Z,12.40
2023-04-29T19:36:29.887Z,12.40
2023-04-29T19:38:58.499Z,12.30
2023-04-29T19:41:29.203Z,12.30
2023-04-29T19:43:57.339Z,12.30
2023-04-29T19:46:25.724Z,12.30
2023-04-29T19:48:55.819Z,12.30
2023-04-29T19:51:23.875Z,12.30
2023-04-29T19:53:56.690Z,12.30
2023-04-29T19:56:24.785Z,12.30
2023-04-29T19:58:52.788Z,12.30
2023-04-29T20:01:20.864Z,12.30
2023-04-29T20:03:48.913Z,12.30
2023-04-29T20:06:17.612Z,12.30
2023-04-29T20:08:45.763Z,12.20
2023-04-29T20:11:14.347Z,12.20
2023-04-29T20:13:42.372Z,12.20
2023-04-29T20:16:10.445Z,12.20
2023-04-29T20:18:38.592Z,12.10
2023-04-29T20:21:07.903Z,12.10
2023-04-29T20:23:35.935Z,12.20
2023-04-29T20:26:05.170Z,12.10
2023-04-29T20:28:33.193Z,12.20
2023-04-29T20:31:01.281Z,12.10
2023-04-29T20:33:29.330Z,12.10
2023-04-29T20:35:58.749Z,12.10
2023-04-29T20:38:28.102Z,12.10
2023-04-29T20:40:56.306Z,12.10
2023-04-29T20:43:24.369Z,12.10
2023-04-29T20:45:53.601Z,12.10
2023-04-29T20:48:21.603Z,12.00
2023-04-29T20:50:50.512Z,12.00
2023-04-29T20:53:18.541Z,12.00
2023-04-29T20:55:47.141Z,12.00
2023-04-29T20:58:17.645Z,11.90
2023-04-29T21:00:45.764Z,12.00
2023-04-29T21:03:13.932Z,11.90
2023-04-29T21:05:42.027Z,11.90
2023-04-29T21:08:10.040Z,11.90
2023-04-29T21:10:38.084Z,11.90
2023-04-29T21:13:06.457Z,11.90
2023-04-29T21:15:34.592Z,11.90
2023-04-29T21:18:02.705Z,11.90
2023-04-29T21:20:31.569Z,11.90
2023-04-29T21:22:59.746Z,11.90
2023-04-29T21:25:28.020Z,11.90
2023-04-29T21:27:56.079Z,11.80
2023-04-29T21:30:24.055Z,11.80
2023-04-29T21:32:52.147Z,11.90
2023-04-29T21:35:20.251Z,11.80
2023-04-29T21:37:48.516Z,11.80
2023-04-29T21:40:16.640Z,11.80
2023-04-29T21:42:50.578Z,11.80
2023-04-29T21:45:19.857Z,11.80
2023-04-29T21:47:48.896Z,11.80
2023-04-29T21:50:17.176Z,11.80
2023-04-29T21:52:45.270Z,11.80
2023-04-29T21:55:13.319Z,11.80
2023-04-29T21:57:44.863Z,11.80
2023-04-29T22:00:29.413Z,11.80
2023-04-29T22:02:57.580Z,11.80
2023-04-29T22:05:26.107Z,11.80
2023-04-29T22:07:54.286Z,11.80
2023-04-29T22:10:22.488Z,11.80
2023-04-29T22:12:50.611Z,11.80
2023-04-29T22:15:28.153Z,11.80
2023-04-29T22:17:58.083Z,11.80
2023-04-29T22:20:26.741Z,11.70
2023-04-29T22:22:54.822Z,11.70
2023-04-29T22:25:23.089Z,11.70
2023-04-29T22:27:51.275Z,11.60
2023-04-29T22:30:19.352Z,11.60
2023-04-29T22:32:47.498Z,11.60
2023-04-29T22:35:15.597Z,11.60
2023-04-29T22:37:43.658Z,11.50
2023-04-29T22:40:12.204Z,11.50
2023-04-29T22:42:40.933Z,11.60
2023-04-29T22:45:09.349Z,11.70
2023-04-29T22:47:37.400Z,11.60
2023-04-29T22:50:05.578Z,11.60
2023-04-29T22:52:34.105Z,11.60
2023-04-29T22:55:04.713Z,11.50
2023-04-29T22:57:35.811Z,11.50
2023-04-29T23:00:04.859Z,11.50
2023-04-29T23:02:32.927Z,11.50
2023-04-29T23:05:01.077Z,11.60
2023-04-29T23:07:29.186Z,11.60
2023-04-29T23:09:57.246Z,11.60
2023-04-29T23:12:26.090Z,11.50
2023-04-29T23:14:54.228Z,11.50
2023-04-29T23:17:22.227Z,11.60
2023-04-29T23:19:50.310Z,11.60
2023-04-29T23:22:19.053Z,11.60
2023-04-29T23:24:47.140Z,11.60
2023-04-29T23:27:15.185Z,11.60
2023-04-29T23:29:43.223Z,11.60
2023-04-29T23:32:11.230Z,11.70
2023-04-29T23:34:39.306Z,11.70
2023-04-29T23:37:07.397Z,11.70
2023-04-29T23:39:35.654Z,11.60
2023-04-29T23:42:04.995Z,11.60
2023-04-29T23:44:33.343Z,11.60
2023-04-29T23:47:01.447Z,11.70
2023-04-29T23:49:29.912Z,11.60
2023-04-29T23:51:57.902Z,11.60
2023-04-29T23:54:25.920Z,11.60
2023-04-29T23:56:53.948Z,11.60
2023-04-29T23:59:21.966Z,11.50
